createdAt,value
2022-08-17T00:00:49.248Z,21.62
2022-08-17T00:01:52.361Z,21.61
2022-08-17T00:02:46.559Z,21.61
2022-08-17T00:03:49.276Z,21.61
2022-08-17T00:04:51.901Z,21.60
2022-08-17T00:05:54.490Z,21.60
2022-08-17T00:06:57.343Z,21.61
2022-08-17T00:07:59.906Z,21.62
2022-08-17T00:09:02.479Z,21.62
2022-08-17T00:10:05.352Z,21.60
2022-08-17T00:11:07.913Z,21.53
2022-08-17T00:12:51.509Z,21.53
2022-08-17T00:13:14.991Z,21.56
2022-08-17T00:14:17.560Z,21.55
2022-08-17T00:15:20.126Z,21.49
2022-08-17T00:16:56.040Z,21.43
2022-08-17T00:17:28.043Z,21.42
2022-08-17T00:18:58.300Z,21.43
2022-08-17T00:19:35.005Z,21.42
2022-08-17T00:20:38.141Z,21.44
2022-08-17T00:22:32.942Z,21.43
2022-08-17T00:22:45.365Z,21.48
2022-08-17T00:23:49.301Z,21.49
2022-08-17T00:24:52.241Z,21.53
2022-08-17T00:25:54.768Z,21.53
2022-08-17T00:26:57.887Z,21.58
2022-08-17T00:28:00.571Z,21.65
2022-08-17T00:29:03.534Z,21.69
2022-08-17T00:30:06.512Z,21.74
2022-08-17T00:31:09.178Z,21.74
2022-08-17T00:33:12.041Z,21.76
2022-08-17T00:33:17.086Z,21.82
2022-08-17T00:34:19.952Z,21.81
2022-08-17T00:35:22.519Z,21.84
2022-08-17T00:36:26.928Z,21.86
2022-08-17T00:37:29.495Z,21.88
2022-08-17T00:38:32.075Z,21.89
2022-08-17T00:39:34.945Z,21.90
2022-08-17T00:40:40.601Z,21.90
2022-08-17T00:41:42.895Z,21.92
2022-08-17T00:42:45.956Z,21.93
2022-08-17T00:43:49.201Z,21.95
2022-08-17T00:44:51.723Z,21.99
2022-08-17T00:45:54.333Z,22.02
2022-08-17T00:46:57.516Z,22.05
2022-08-17T00:48:00.221Z,22.06
2022-08-17T00:49:02.856Z,22.06
2022-08-17T00:50:05.834Z,22.04
2022-08-17T00:51:08.806Z,22.04
2022-08-17T00:52:12.155Z,22.07
2022-08-17T00:53:15.685Z,22.07
2022-08-17T00:54:18.253Z,22.08
2022-08-17T00:55:20.921Z,22.08
2022-08-17T00:56:24.006Z,22.08
2022-08-17T00:57:26.973Z,22.07
2022-08-17T00:58:36.249Z,22.11
2022-08-17T00:59:34.158Z,22.13
2022-08-17T01:00:37.800Z,22.17
2022-08-17T01:01:40.653Z,22.19
2022-08-17T01:02:44.357Z,22.22
2022-08-17T01:03:47.287Z,22.23
2022-08-17T01:04:49.910Z,22.24
2022-08-17T01:05:52.480Z,22.27
2022-08-17T01:06:55.622Z,22.26
2022-08-17T01:07:58.279Z,22.25
2022-08-17T01:09:00.844Z,22.24
2022-08-17T01:10:03.923Z,22.23
2022-08-17T01:11:06.589Z,22.23
2022-08-17T01:12:09.265Z,22.22
2022-08-17T01:13:11.820Z,22.20
2022-08-17T01:14:14.499Z,22.19
2022-08-17T01:15:17.175Z,22.17
2022-08-17T01:16:20.249Z,22.16
2022-08-17T01:17:23.213Z,22.16
2022-08-17T01:18:25.881Z,22.17
2022-08-17T01:19:28.552Z,22.14
2022-08-17T01:20:31.844Z,22.12
2022-08-17T01:21:36.573Z,22.14
2022-08-17T01:22:39.180Z,22.13
2022-08-17T01:23:41.991Z,22.11
2022-08-17T01:24:44.778Z,22.08
2022-08-17T01:25:49.191Z,22.09
2022-08-17T01:26:52.047Z,22.08
2022-08-17T01:27:54.824Z,22.05
2022-08-17T01:28:57.388Z,22.06
2022-08-17T01:30:00.182Z,22.06
2022-08-17T01:31:02.829Z,22.04
2022-08-17T01:32:05.804Z,22.05
2022-08-17T01:33:08.473Z,22.04
2022-08-17T01:34:11.143Z,21.97
2022-08-17T01:35:14.221Z,21.92
2022-08-17T01:36:18.631Z,21.83
2022-08-17T01:37:21.213Z,21.77
2022-08-17T01:38:27.230Z,21.72
2022-08-17T01:39:28.320Z,21.60
2022-08-17T01:40:31.769Z,21.54
2022-08-17T01:41:34.437Z,21.46
2022-08-17T01:42:38.028Z,21.47
2022-08-17T01:43:40.726Z,21.47
2022-08-17T01:44:43.372Z,21.45
2022-08-17T01:45:46.056Z,21.37
2022-08-17T01:46:49.008Z,21.10
2022-08-17T01:47:51.721Z,21.00
2022-08-17T01:48:54.940Z,21.00
2022-08-17T01:49:57.532Z,20.91
2022-08-17T01:51:00.306Z,20.85
2022-08-17T01:52:02.932Z,20.66
2022-08-17T01:53:05.563Z,20.59
2022-08-17T01:54:08.240Z,20.52
2022-08-17T01:55:10.938Z,20.52
2022-08-17T01:56:14.575Z,20.53
2022-08-17T01:57:17.550Z,20.48
2022-08-17T01:58:20.237Z,20.42
2022-08-17T01:59:22.888Z,20.41
2022-08-17T02:00:26.396Z,20.38
2022-08-17T02:01:30.935Z,20.35
2022-08-17T02:02:34.993Z,20.34
2022-08-17T02:03:37.660Z,20.33
2022-08-17T02:04:40.535Z,20.34
2022-08-17T02:05:43.104Z,20.32
2022-08-17T02:06:53.207Z,20.30
2022-08-17T02:08:00.495Z,20.27
2022-08-17T02:09:01.867Z,20.25
2022-08-17T02:09:59.721Z,20.25
2022-08-17T02:11:02.697Z,20.25
2022-08-17T02:12:39.403Z,20.25
2022-08-17T02:13:10.804Z,20.26
2022-08-17T02:14:13.368Z,20.25
2022-08-17T02:15:15.848Z,20.23
2022-08-17T02:16:20.961Z,20.20
2022-08-17T02:17:23.940Z,20.18
2022-08-17T02:18:26.604Z,20.17
2022-08-17T02:19:29.508Z,20.18
2022-08-17T02:20:41.933Z,20.21
2022-08-17T02:21:37.580Z,20.22
2022-08-17T02:22:40.245Z,20.22
2022-08-17T02:23:43.116Z,20.22
2022-08-17T02:25:00.419Z,20.20
2022-08-17T02:25:50.411Z,20.18
2022-08-17T02:26:53.493Z,20.17
2022-08-17T02:27:56.465Z,20.18
2022-08-17T02:28:59.332Z,20.21
2022-08-17T02:30:01.900Z,20.19
2022-08-17T02:31:04.668Z,20.17
2022-08-17T02:32:07.237Z,20.13
2022-08-17T02:33:09.803Z,20.10
2022-08-17T02:34:12.389Z,20.11
2022-08-17T02:35:14.999Z,20.11
2022-08-17T02:36:24.154Z,20.11
2022-08-17T02:37:24.680Z,20.06
2022-08-17T02:38:27.246Z,20.00
2022-08-17T02:39:29.850Z,19.97
2022-08-17T02:40:36.105Z,19.93
2022-08-17T02:41:38.450Z,19.93
2022-08-17T02:42:41.097Z,19.95
2022-08-17T02:43:43.668Z,19.90
2022-08-17T02:44:46.332Z,19.88
2022-08-17T02:45:48.900Z,19.88
2022-08-17T02:46:53.620Z,19.89
2022-08-17T02:47:56.393Z,19.91
2022-08-17T02:48:59.062Z,19.90
2022-08-17T02:50:01.730Z,19.91
2022-08-17T02:51:04.296Z,19.92
2022-08-17T02:52:07.995Z,19.94
2022-08-17T02:53:10.657Z,19.96
2022-08-17T02:54:39.239Z,19.99
2022-08-17T02:55:18.350Z,20.01
2022-08-17T02:56:21.327Z,20.03
2022-08-17T02:57:23.839Z,20.07
2022-08-17T02:58:34.714Z,20.10
2022-08-17T02:59:30.768Z,20.14
2022-08-17T03:00:34.278Z,20.19
2022-08-17T03:01:37.326Z,20.23
2022-08-17T03:02:40.212Z,20.26
2022-08-17T03:03:42.876Z,20.26
2022-08-17T03:04:45.545Z,20.29
2022-08-17T03:05:48.119Z,20.32
2022-08-17T03:06:51.192Z,20.35
2022-08-17T03:07:53.759Z,20.38
2022-08-17T03:08:56.328Z,20.42
2022-08-17T03:09:58.998Z,20.46
2022-08-17T03:11:01.869Z,20.51
2022-08-17T03:12:04.557Z,20.54
2022-08-17T03:13:07.515Z,20.57
2022-08-17T03:14:10.083Z,20.57
2022-08-17T03:15:12.585Z,20.57
2022-08-17T03:16:16.163Z,20.58
2022-08-17T03:17:18.759Z,20.59
2022-08-17T03:18:25.264Z,20.63
2022-08-17T03:19:25.887Z,20.65
2022-08-17T03:20:28.987Z,20.61
2022-08-17T03:21:31.554Z,20.64
2022-08-17T03:22:36.713Z,20.67
2022-08-17T03:23:38.773Z,20.65
2022-08-17T03:24:41.383Z,20.65
2022-08-17T03:25:44.058Z,20.62
2022-08-17T03:26:47.131Z,20.64
2022-08-17T03:27:49.722Z,20.64
2022-08-17T03:28:54.209Z,20.66
2022-08-17T03:29:56.734Z,20.70
2022-08-17T03:30:59.684Z,20.68
2022-08-17T03:32:02.732Z,20.69
2022-08-17T03:33:05.302Z,20.71
2022-08-17T03:34:07.967Z,20.76
2022-08-17T03:35:10.635Z,20.81
2022-08-17T03:36:16.846Z,20.85
2022-08-17T03:37:19.566Z,20.90
2022-08-17T03:38:22.332Z,20.90
2022-08-17T03:39:26.235Z,20.91
2022-08-17T03:40:34.401Z,20.91
2022-08-17T03:41:34.051Z,20.92
2022-08-17T03:42:37.001Z,20.92
2022-08-17T03:43:39.978Z,20.94
2022-08-17T03:44:42.543Z,20.95
2022-08-17T03:45:45.111Z,20.95
2022-08-17T03:46:47.943Z,20.97
2022-08-17T03:47:50.509Z,20.98
2022-08-17T03:48:53.122Z,21.00
2022-08-17T03:49:55.993Z,21.02
2022-08-17T03:50:59.275Z,21.00
2022-08-17T03:52:03.691Z,20.99
2022-08-17T03:53:06.459Z,21.04
2022-08-17T03:54:09.022Z,21.09
2022-08-17T03:55:11.913Z,21.08
2022-08-17T03:56:15.183Z,21.10
2022-08-17T03:57:18.062Z,21.11
2022-08-17T03:58:20.728Z,21.12
2022-08-17T03:59:23.707Z,21.14
2022-08-17T04:00:28.730Z,21.17
2022-08-17T04:01:31.326Z,21.12
2022-08-17T04:02:34.478Z,21.16
2022-08-17T04:03:37.147Z,21.24
2022-08-17T04:04:39.719Z,21.33
2022-08-17T04:05:42.446Z,21.42
2022-08-17T04:06:45.413Z,21.50
2022-08-17T04:07:48.130Z,21.54
2022-08-17T04:08:50.695Z,21.63
2022-08-17T04:09:53.323Z,21.73
2022-08-17T04:10:56.140Z,21.81
2022-08-17T04:12:01.143Z,21.88
2022-08-17T04:13:03.222Z,21.97
2022-08-17T04:14:05.803Z,22.03
2022-08-17T04:15:08.450Z,22.06
2022-08-17T04:16:11.903Z,22.10
2022-08-17T04:17:14.606Z,22.13
2022-08-17T04:18:18.199Z,22.19
2022-08-17T04:19:20.767Z,22.23
2022-08-17T04:20:24.773Z,22.26
2022-08-17T04:21:27.713Z,22.27
2022-08-17T04:22:34.275Z,22.26
2022-08-17T04:23:34.922Z,22.30
2022-08-17T04:24:37.492Z,22.35
2022-08-17T04:25:40.015Z,22.38
2022-08-17T04:26:53.403Z,22.43
2022-08-17T04:27:47.343Z,22.45
2022-08-17T04:28:49.919Z,22.44
2022-08-17T04:29:54.938Z,22.49
2022-08-17T04:30:57.201Z,22.54
2022-08-17T04:31:59.889Z,22.56
2022-08-17T04:33:05.725Z,22.53
2022-08-17T04:34:06.943Z,22.55
2022-08-17T04:35:09.509Z,22.49
2022-08-17T04:36:12.857Z,22.51
2022-08-17T04:37:15.565Z,22.54
2022-08-17T04:38:18.143Z,22.61
2022-08-17T04:39:21.064Z,22.63
2022-08-17T04:40:27.170Z,22.68
2022-08-17T04:41:30.338Z,22.71
2022-08-17T04:42:32.902Z,22.81
2022-08-17T04:43:35.474Z,22.85
2022-08-17T04:44:38.242Z,22.94
2022-08-17T04:45:41.148Z,23.05
2022-08-17T04:46:45.940Z,23.11
2022-08-17T04:47:48.924Z,23.18
2022-08-17T04:48:51.483Z,23.25
2022-08-17T04:49:54.048Z,23.28
2022-08-17T04:50:56.919Z,23.31
2022-08-17T04:52:04.317Z,23.39
2022-08-17T04:53:04.410Z,23.51
2022-08-17T04:54:07.049Z,23.59
2022-08-17T04:55:09.752Z,23.69
2022-08-17T04:56:17.082Z,23.73
2022-08-17T04:57:17.647Z,23.75
2022-08-17T04:58:20.523Z,23.85
2022-08-17T04:59:23.188Z,23.90
2022-08-17T05:00:27.091Z,23.96
2022-08-17T05:01:30.060Z,24.03
2022-08-17T05:02:33.051Z,24.05
2022-08-17T05:03:35.708Z,24.10
2022-08-17T05:04:38.690Z,24.11
2022-08-17T05:05:41.355Z,24.10
2022-08-17T05:06:44.331Z,24.11
2022-08-17T05:07:46.897Z,24.21
2022-08-17T05:08:49.464Z,24.29
2022-08-17T05:09:52.047Z,24.31
2022-08-17T05:10:55.277Z,24.39
2022-08-17T05:11:57.881Z,24.34
2022-08-17T05:13:00.418Z,24.25
2022-08-17T05:14:03.017Z,24.31
2022-08-17T05:15:05.689Z,24.43
2022-08-17T05:16:08.933Z,24.47
2022-08-17T05:17:11.625Z,24.46
2022-08-17T05:18:14.312Z,24.53
2022-08-17T05:19:16.976Z,24.60
2022-08-17T05:20:21.288Z,24.59
2022-08-17T05:21:24.472Z,24.49
2022-08-17T05:22:27.141Z,24.51
2022-08-17T05:23:35.571Z,24.59
2022-08-17T05:24:42.601Z,24.70
2022-08-17T05:25:39.759Z,24.82
2022-08-17T05:26:43.138Z,24.86
2022-08-17T05:27:45.829Z,24.84
2022-08-17T05:28:49.608Z,24.92
2022-08-17T05:29:53.807Z,24.90
2022-08-17T05:30:56.770Z,25.02
2022-08-17T05:31:59.766Z,25.05
2022-08-17T05:33:03.009Z,25.15
2022-08-17T05:34:05.624Z,25.28
2022-08-17T05:35:08.366Z,25.38
2022-08-17T05:36:11.565Z,25.39
2022-08-17T05:37:15.984Z,25.48
2022-08-17T05:38:18.609Z,25.51
2022-08-17T05:39:21.107Z,25.57
2022-08-17T05:40:25.625Z,25.67
2022-08-17T05:41:28.248Z,25.76
2022-08-17T05:42:31.941Z,25.71
2022-08-17T05:43:34.548Z,25.73
2022-08-17T05:44:37.116Z,25.86
2022-08-17T05:45:54.153Z,25.95
2022-08-17T05:46:44.505Z,26.11
2022-08-17T05:47:47.376Z,26.23
2022-08-17T05:48:49.947Z,26.17
2022-08-17T05:49:53.834Z,26.20
2022-08-17T05:50:57.329Z,25.87
2022-08-17T05:52:00.268Z,25.78
2022-08-17T05:53:02.876Z,25.82
2022-08-17T05:54:05.547Z,25.78
2022-08-17T05:55:08.315Z,26.02
2022-08-17T05:56:29.203Z,26.18
2022-08-17T05:57:16.622Z,26.08
2022-08-17T05:58:21.047Z,26.07
2022-08-17T05:59:23.672Z,26.11
2022-08-17T06:00:30.593Z,26.03
2022-08-17T06:01:31.615Z,25.86
2022-08-17T06:02:34.268Z,25.74
2022-08-17T06:03:36.816Z,25.73
2022-08-17T06:04:39.377Z,25.79
2022-08-17T06:05:41.930Z,25.90
2022-08-17T06:06:44.849Z,25.82
2022-08-17T06:07:47.718Z,25.88
2022-08-17T06:08:51.764Z,25.79
2022-08-17T06:09:54.592Z,25.83
2022-08-17T06:10:57.527Z,25.83
2022-08-17T06:12:00.186Z,25.92
2022-08-17T06:13:02.908Z,25.70
2022-08-17T06:14:05.473Z,25.85
2022-08-17T06:15:08.057Z,26.01
2022-08-17T06:16:26.219Z,25.96
2022-08-17T06:17:15.738Z,26.03
2022-08-17T06:18:19.215Z,26.08
2022-08-17T06:19:21.996Z,26.02
2022-08-17T06:20:24.934Z,25.95
2022-08-17T06:21:30.503Z,25.83
2022-08-17T06:22:33.075Z,25.74
2022-08-17T06:23:35.640Z,25.73
2022-08-17T06:24:38.129Z,25.81
2022-08-17T06:25:40.782Z,25.95
2022-08-17T06:26:43.709Z,25.87
2022-08-17T06:27:46.427Z,25.83
2022-08-17T06:28:49.112Z,25.80
2022-08-17T06:29:51.768Z,25.83
2022-08-17T06:30:59.318Z,25.92
2022-08-17T06:31:59.145Z,26.12
2022-08-17T06:33:01.712Z,26.21
2022-08-17T06:34:04.598Z,26.23
2022-08-17T06:35:07.260Z,26.29
2022-08-17T06:36:10.805Z,26.51
2022-08-17T06:37:15.265Z,26.67
2022-08-17T06:38:38.238Z,26.60
2022-08-17T06:39:22.335Z,26.55
2022-08-17T06:40:25.624Z,26.42
2022-08-17T06:41:28.496Z,26.68
2022-08-17T06:43:02.847Z,26.59
2022-08-17T06:43:36.085Z,26.69
2022-08-17T06:44:43.597Z,26.88
2022-08-17T06:45:43.636Z,27.04
2022-08-17T06:46:46.449Z,27.06
2022-08-17T06:47:49.048Z,26.99
2022-08-17T06:48:51.686Z,26.87
2022-08-17T06:49:55.538Z,26.75
2022-08-17T06:50:58.698Z,26.77
2022-08-17T06:52:01.233Z,26.91
2022-08-17T06:53:03.877Z,26.84
2022-08-17T06:54:06.437Z,26.92
2022-08-17T06:55:09.606Z,27.09
2022-08-17T06:56:14.672Z,27.30
2022-08-17T06:57:17.241Z,27.29
2022-08-17T06:58:20.131Z,27.22
2022-08-17T06:59:23.093Z,27.38
2022-08-17T07:00:27.616Z,27.51
2022-08-17T07:01:30.662Z,27.68
2022-08-17T07:02:51.199Z,27.48
2022-08-17T07:03:38.719Z,27.70
2022-08-17T07:04:41.555Z,27.69
2022-08-17T07:05:45.861Z,27.72
2022-08-17T07:06:49.761Z,27.69
2022-08-17T07:07:52.386Z,27.62
2022-08-17T07:08:55.097Z,27.41
2022-08-17T07:09:57.665Z,27.05
2022-08-17T07:11:00.333Z,27.22
2022-08-17T07:12:02.900Z,27.00
2022-08-17T07:13:05.878Z,26.94
2022-08-17T07:14:08.546Z,26.93
2022-08-17T07:15:11.111Z,26.67
2022-08-17T07:16:15.528Z,26.76
2022-08-17T07:17:18.197Z,26.80
2022-08-17T07:18:20.969Z,27.00
2022-08-17T07:19:23.632Z,27.10
2022-08-17T07:20:26.714Z,26.96
2022-08-17T07:21:29.996Z,27.09
2022-08-17T07:22:53.501Z,27.27
2022-08-17T07:23:37.689Z,27.32
2022-08-17T07:24:40.356Z,27.20
2022-08-17T07:25:42.967Z,27.29
2022-08-17T07:26:45.698Z,27.06
2022-08-17T07:27:48.274Z,27.11
2022-08-17T07:28:51.239Z,27.26
2022-08-17T07:29:53.810Z,27.27
2022-08-17T07:30:56.688Z,27.30
2022-08-17T07:31:59.253Z,27.37
2022-08-17T07:33:01.916Z,27.18
2022-08-17T07:34:04.453Z,27.41
2022-08-17T07:35:07.078Z,27.35
2022-08-17T07:36:12.176Z,27.26
2022-08-17T07:37:14.744Z,27.39
2022-08-17T07:38:25.530Z,27.53
2022-08-17T07:39:21.850Z,27.49
2022-08-17T07:40:25.424Z,27.43
2022-08-17T07:41:57.423Z,27.70
2022-08-17T07:42:34.361Z,27.82
2022-08-17T07:43:37.620Z,28.10
2022-08-17T07:45:50.233Z,28.38
2022-08-17T07:46:53.312Z,28.34
2022-08-17T07:47:56.591Z,28.50
2022-08-17T07:48:59.160Z,28.86
2022-08-17T07:50:01.944Z,28.54
2022-08-17T07:51:04.612Z,29.04
2022-08-17T07:52:23.922Z,29.36
2022-08-17T07:53:12.098Z,29.51
2022-08-17T07:54:15.019Z,29.64
2022-08-17T07:55:18.105Z,29.36
2022-08-17T07:56:21.021Z,28.86
2022-08-17T07:57:29.414Z,28.44
2022-08-17T07:58:28.208Z,28.42
2022-08-17T07:59:33.710Z,28.77
2022-08-17T08:00:35.685Z,28.45
2022-08-17T08:01:42.062Z,28.22
2022-08-17T08:02:45.295Z,28.11
2022-08-17T08:03:52.403Z,28.45
2022-08-17T08:05:01.198Z,28.55
2022-08-17T08:05:56.930Z,28.60
2022-08-17T08:07:00.004Z,28.75
2022-08-17T08:08:02.573Z,28.63
2022-08-17T08:09:05.249Z,28.61
2022-08-17T08:10:08.315Z,28.62
2022-08-17T08:11:10.903Z,28.82
2022-08-17T08:12:15.944Z,28.95
2022-08-17T08:13:18.025Z,28.95
2022-08-17T08:14:20.838Z,29.04
2022-08-17T08:15:23.467Z,29.25
2022-08-17T08:16:26.793Z,29.24
2022-08-17T08:17:29.360Z,29.54
2022-08-17T08:18:38.556Z,29.91
2022-08-17T08:19:36.339Z,30.11
2022-08-17T08:20:52.029Z,30.51
2022-08-17T08:21:43.858Z,30.81
2022-08-17T08:22:46.805Z,31.30
2022-08-17T08:23:49.779Z,31.65
2022-08-17T08:24:52.549Z,31.16
2022-08-17T08:25:55.117Z,31.22
2022-08-17T08:26:59.316Z,31.71
2022-08-17T08:28:01.890Z,31.95
2022-08-17T08:29:04.859Z,31.94
2022-08-17T08:30:07.935Z,32.08
2022-08-17T08:31:10.463Z,32.18
2022-08-17T08:32:13.029Z,32.23
2022-08-17T08:33:15.697Z,32.23
2022-08-17T08:35:00.687Z,32.54
2022-08-17T08:35:22.834Z,32.31
2022-08-17T08:36:56.856Z,31.95
2022-08-17T08:37:35.721Z,31.98
2022-08-17T08:38:35.437Z,31.55
2022-08-17T08:39:38.146Z,31.37
2022-08-17T08:40:41.155Z,31.11
2022-08-17T08:41:44.017Z,30.39
2022-08-17T08:42:47.345Z,30.33
2022-08-17T08:43:53.118Z,30.51
2022-08-17T08:44:59.926Z,30.51
2022-08-17T08:45:59.351Z,30.56
2022-08-17T08:47:02.321Z,30.15
2022-08-17T08:48:05.300Z,30.59
2022-08-17T08:49:11.822Z,30.59
2022-08-17T08:50:34.127Z,30.67
2022-08-17T08:51:18.148Z,30.75
2022-08-17T08:52:20.759Z,30.85
2022-08-17T08:53:23.607Z,30.34
2022-08-17T08:54:26.944Z,30.09
2022-08-17T08:55:30.085Z,30.06
2022-08-17T08:56:34.333Z,29.86
2022-08-17T08:57:37.016Z,29.96
2022-08-17T08:58:41.379Z,30.12
2022-08-17T08:59:44.598Z,30.10
2022-08-17T09:00:48.588Z,30.26
2022-08-17T09:01:51.427Z,29.95
2022-08-17T09:02:54.299Z,30.22
2022-08-17T09:04:11.797Z,30.36
2022-08-17T09:05:16.267Z,30.49
2022-08-17T09:06:06.241Z,29.99
2022-08-17T09:07:10.613Z,29.88
2022-08-17T09:08:13.577Z,29.67
2022-08-17T09:09:16.502Z,29.85
2022-08-17T09:10:20.097Z,29.79
2022-08-17T09:11:22.664Z,29.65
2022-08-17T09:12:25.223Z,29.91
2022-08-17T09:13:27.823Z,30.13
2022-08-17T09:14:30.428Z,30.03
2022-08-17T09:15:34.936Z,29.94
2022-08-17T09:16:37.952Z,30.20
2022-08-17T09:17:40.521Z,30.46
2022-08-17T09:19:00.417Z,30.72
2022-08-17T09:19:47.700Z,30.71
2022-08-17T09:20:51.112Z,30.82
2022-08-17T09:21:53.652Z,30.85
2022-08-17T09:22:56.459Z,30.62
2022-08-17T09:23:59.054Z,30.35
2022-08-17T09:25:01.655Z,30.27
2022-08-17T09:26:04.738Z,30.09
2022-08-17T09:27:07.412Z,30.09
2022-08-17T09:28:09.997Z,30.10
2022-08-17T09:29:12.602Z,29.94
2022-08-17T09:30:16.358Z,29.83
2022-08-17T09:31:19.309Z,29.90
2022-08-17T09:32:21.879Z,30.02
2022-08-17T09:33:24.449Z,30.21
2022-08-17T09:34:29.619Z,30.11
2022-08-17T09:35:32.895Z,30.27
2022-08-17T09:36:36.856Z,30.52
2022-08-17T09:37:39.336Z,30.71
2022-08-17T09:38:41.888Z,30.63
2022-08-17T09:39:44.700Z,30.45
2022-08-17T09:40:47.737Z,30.62
2022-08-17T09:41:50.614Z,30.76
2022-08-17T09:42:53.689Z,30.96
2022-08-17T09:43:56.583Z,30.95
2022-08-17T09:44:59.601Z,31.02
2022-08-17T09:46:02.222Z,30.98
2022-08-17T09:47:04.883Z,30.97
2022-08-17T09:48:07.756Z,31.11
2022-08-17T09:49:10.487Z,31.24
2022-08-17T09:50:14.079Z,30.98
2022-08-17T09:51:16.785Z,30.99
2022-08-17T09:52:19.353Z,31.10
2022-08-17T09:53:21.979Z,30.80
2022-08-17T09:54:38.548Z,30.45
2022-08-17T09:55:29.101Z,30.28
2022-08-17T09:56:31.935Z,29.94
2022-08-17T09:57:34.547Z,29.50
2022-08-17T09:58:37.313Z,29.69
2022-08-17T09:59:39.982Z,29.76
2022-08-17T10:00:44.728Z,29.79
2022-08-17T10:01:47.437Z,29.85
2022-08-17T10:02:50.095Z,30.13
2022-08-17T10:03:52.704Z,30.26
2022-08-17T10:04:55.273Z,30.44
2022-08-17T10:05:58.147Z,30.24
2022-08-17T10:07:01.129Z,30.22
2022-08-17T10:08:04.673Z,30.30
2022-08-17T10:09:07.390Z,30.41
2022-08-17T10:10:14.196Z,30.49
2022-08-17T10:11:15.515Z,30.75
2022-08-17T10:12:18.098Z,30.92
2022-08-17T10:13:20.825Z,31.05
2022-08-17T10:14:37.537Z,31.30
2022-08-17T10:15:29.843Z,31.67
2022-08-17T10:16:34.114Z,31.97
2022-08-17T10:17:36.722Z,32.31
2022-08-17T10:18:39.297Z,32.70
2022-08-17T10:19:43.945Z,33.00
2022-08-17T10:20:46.779Z,33.14
2022-08-17T10:21:49.551Z,33.18
2022-08-17T10:22:54.995Z,32.98
2022-08-17T10:23:57.964Z,32.62
2022-08-17T10:25:21.408Z,32.92
2022-08-17T10:26:05.348Z,32.81
2022-08-17T10:27:08.078Z,32.76
2022-08-17T10:28:19.693Z,33.02
2022-08-17T10:29:15.198Z,33.24
2022-08-17T10:30:18.280Z,33.45
2022-08-17T10:31:36.472Z,33.48
2022-08-17T10:32:25.374Z,33.65
2022-08-17T10:33:28.053Z,33.67
2022-08-17T10:34:36.147Z,33.59
2022-08-17T10:35:35.063Z,33.67
2022-08-17T10:36:37.951Z,33.55
2022-08-17T10:37:40.554Z,33.80
2022-08-17T10:38:43.215Z,33.82
2022-08-17T10:39:52.482Z,33.71
2022-08-17T10:40:50.703Z,33.79
2022-08-17T10:41:53.743Z,34.05
2022-08-17T10:42:56.456Z,34.22
2022-08-17T10:44:39.516Z,34.51
2022-08-17T10:45:03.839Z,34.59
2022-08-17T10:46:09.223Z,34.72
2022-08-17T10:47:11.359Z,35.09
2022-08-17T10:48:14.262Z,35.45
2022-08-17T10:49:17.071Z,35.63
2022-08-17T10:50:20.161Z,35.52
2022-08-17T10:51:23.033Z,35.46
2022-08-17T10:52:25.598Z,35.78
2022-08-17T10:53:28.077Z,35.81
2022-08-17T10:54:31.143Z,35.96
2022-08-17T10:55:33.705Z,35.87
2022-08-17T10:56:36.686Z,36.05
2022-08-17T10:57:39.289Z,35.76
2022-08-17T10:58:41.916Z,35.91
2022-08-17T10:59:44.696Z,35.24
2022-08-17T11:00:47.750Z,35.55
2022-08-17T11:01:50.858Z,35.54
2022-08-17T11:02:54.080Z,35.23
2022-08-17T11:03:56.910Z,35.16
2022-08-17T11:04:59.582Z,34.94
2022-08-17T11:06:02.513Z,34.40
2022-08-17T11:07:05.128Z,34.80
2022-08-17T11:08:08.207Z,34.32
2022-08-17T11:09:10.864Z,34.47
2022-08-17T11:10:14.778Z,34.76
2022-08-17T11:11:17.408Z,35.04
2022-08-17T11:12:20.005Z,35.06
2022-08-17T11:13:22.670Z,35.13
2022-08-17T11:14:25.198Z,35.56
2022-08-17T11:15:28.142Z,35.74
2022-08-17T11:16:32.932Z,35.66
2022-08-17T11:17:35.601Z,35.98
2022-08-17T11:18:38.206Z,36.18
2022-08-17T11:19:40.840Z,36.35
2022-08-17T11:20:43.920Z,35.66
2022-08-17T11:21:46.900Z,35.62
2022-08-17T11:22:49.725Z,35.84
2022-08-17T11:23:52.850Z,35.51
2022-08-17T11:24:55.473Z,35.47
2022-08-17T11:25:58.041Z,35.54
2022-08-17T11:27:01.170Z,35.55
2022-08-17T11:28:04.143Z,35.62
2022-08-17T11:29:06.807Z,35.19
2022-08-17T11:30:10.148Z,35.60
2022-08-17T11:31:12.832Z,35.96
2022-08-17T11:32:15.694Z,36.33
2022-08-17T11:33:18.320Z,36.67
2022-08-17T11:34:22.817Z,36.95
2022-08-17T11:35:25.488Z,36.94
2022-08-17T11:36:31.845Z,36.73
2022-08-17T11:37:34.406Z,36.60
2022-08-17T11:38:36.974Z,36.42
2022-08-17T11:39:39.733Z,36.27
2022-08-17T11:40:42.717Z,36.61
2022-08-17T11:41:45.719Z,36.22
2022-08-17T11:42:48.634Z,36.28
2022-08-17T11:43:51.854Z,36.65
2022-08-17T11:44:54.543Z,36.85
2022-08-17T11:45:57.501Z,37.07
2022-08-17T11:47:00.273Z,37.07
2022-08-17T11:48:26.724Z,37.28
2022-08-17T11:49:07.356Z,37.12
2022-08-17T11:50:10.638Z,36.89
2022-08-17T11:51:13.313Z,37.24
2022-08-17T11:52:15.992Z,37.44
2022-08-17T11:53:19.266Z,37.59
2022-08-17T11:54:32.957Z,37.69
2022-08-17T11:55:34.987Z,37.69
2022-08-17T11:56:32.487Z,37.58
2022-08-17T11:57:35.053Z,36.96
2022-08-17T11:58:37.733Z,37.02
2022-08-17T11:59:40.351Z,37.18
2022-08-17T12:00:43.166Z,37.35
2022-08-17T12:01:45.838Z,36.90
2022-08-17T12:02:48.947Z,36.27
2022-08-17T12:03:54.426Z,36.75
2022-08-17T12:04:56.332Z,36.74
2022-08-17T12:05:58.966Z,36.66
2022-08-17T12:07:01.947Z,36.80
2022-08-17T12:08:05.127Z,36.72
2022-08-17T12:09:07.800Z,36.85
2022-08-17T12:10:11.184Z,36.29
2022-08-17T12:11:14.121Z,36.21
2022-08-17T12:12:16.840Z,36.42
2022-08-17T12:13:19.870Z,36.37
2022-08-17T12:14:32.201Z,36.39
2022-08-17T12:15:27.300Z,36.37
2022-08-17T12:16:30.481Z,36.46
2022-08-17T12:17:40.837Z,36.68
2022-08-17T12:18:37.768Z,36.85
2022-08-17T12:19:40.390Z,36.84
2022-08-17T12:20:43.419Z,36.47
2022-08-17T12:21:46.076Z,36.37
2022-08-17T12:22:48.749Z,36.62
2022-08-17T12:23:51.718Z,37.13
2022-08-17T12:24:54.288Z,37.33
2022-08-17T12:25:56.957Z,37.65
2022-08-17T12:27:00.064Z,37.84
2022-08-17T12:28:04.895Z,37.94
2022-08-17T12:29:07.215Z,38.02
2022-08-17T12:30:13.468Z,38.27
2022-08-17T12:31:16.034Z,38.54
2022-08-17T12:32:18.619Z,38.21
2022-08-17T12:33:25.778Z,37.72
2022-08-17T12:34:25.683Z,37.44
2022-08-17T12:35:28.463Z,37.93
2022-08-17T12:36:31.739Z,38.05
2022-08-17T12:37:34.715Z,38.02
2022-08-17T12:38:37.382Z,38.04
2022-08-17T12:39:39.986Z,37.83
2022-08-17T12:40:42.928Z,37.59
2022-08-17T12:41:45.597Z,37.26
2022-08-17T12:42:48.841Z,37.33
2022-08-17T12:43:51.656Z,37.38
2022-08-17T12:44:54.306Z,37.53
2022-08-17T12:45:56.872Z,37.71
2022-08-17T12:46:59.966Z,37.80
2022-08-17T12:48:02.694Z,37.17
2022-08-17T12:49:05.419Z,37.15
2022-08-17T12:50:28.619Z,36.98
2022-08-17T12:51:13.265Z,37.30
2022-08-17T12:52:16.108Z,37.53
2022-08-17T12:53:18.747Z,37.39
2022-08-17T12:54:21.420Z,37.58
2022-08-17T12:55:24.619Z,37.46
2022-08-17T12:56:29.724Z,37.25
2022-08-17T12:57:32.394Z,37.35
2022-08-17T12:58:35.063Z,37.57
2022-08-17T12:59:37.931Z,37.63
2022-08-17T13:00:40.790Z,37.67
2022-08-17T13:01:45.368Z,37.72
2022-08-17T13:02:48.261Z,37.27
2022-08-17T13:03:50.886Z,37.04
2022-08-17T13:04:53.538Z,37.15
2022-08-17T13:05:56.213Z,37.35
2022-08-17T13:07:00.272Z,36.92
2022-08-17T13:08:03.142Z,36.67
2022-08-17T13:09:05.747Z,36.68
2022-08-17T13:10:09.115Z,36.60
2022-08-17T13:11:11.807Z,36.90
2022-08-17T13:12:14.476Z,37.01
2022-08-17T13:13:17.143Z,36.60
2022-08-17T13:14:19.821Z,36.92
2022-08-17T13:15:22.484Z,36.73
2022-08-17T13:16:27.101Z,36.75
2022-08-17T13:17:29.876Z,36.67
2022-08-17T13:18:32.641Z,36.71
2022-08-17T13:19:40.727Z,36.74
2022-08-17T13:20:40.131Z,36.54
2022-08-17T13:21:43.107Z,36.21
2022-08-17T13:22:45.776Z,36.13
2022-08-17T13:23:53.531Z,36.01
2022-08-17T13:24:53.354Z,36.00
2022-08-17T13:25:56.240Z,35.74
2022-08-17T13:26:59.272Z,35.55
2022-08-17T13:28:01.892Z,35.54
2022-08-17T13:29:04.864Z,35.50
2022-08-17T13:30:07.839Z,35.50
2022-08-17T13:31:10.535Z,35.52
2022-08-17T13:32:13.888Z,35.53
2022-08-17T13:33:16.767Z,35.44
2022-08-17T13:34:21.282Z,35.61